Time;durP1;ratioP1;P1;durP2;ratioP2;P2;SDS_P1;SDS_P2;PMS_P1;PMS_P2;Temp;Humidity;BMP_temperature;BMP_pressure;BME280_temperature;BME280_humidity;BME280_pressure;Samples;Min_cycle;Max_cycle;Signal;HPM_P1;HPM_P2
2021/07/04 00:01:52;;;;;;;;;;;;;;;29.82;34.35;97110.25;5019899;28;1455;-53
2021/07/04 00:04:17;;;;;;;;;;;;;;;29.78;34.72;97111.56;5016634;28;1553;-54
2021/07/04 00:06:42;;;;;;;;;;;;;;;29.94;34.17;97104.50;5019784;28;1581;-54
2021/07/04 00:09:08;;;;;;;;;;;;;;;29.84;34.44;97110.94;5019615;28;1231;-54
2021/07/04 00:11:33;;;;;;;;;;;;;;;29.51;35.10;97107.25;5020070;28;1482;-55
2021/07/04 00:13:58;;;;;;;;;;;;;;;30.23;33.78;97104.13;5020958;28;1620;-53
2021/07/04 00:16:23;;;;;;;;;;;;;;;29.96;34.17;97112.34;5019705;28;1298;-54
2021/07/04 00:18:48;;;;;;;;;;;;;;;29.83;34.35;97114.59;5019398;28;1952;-54
2021/07/04 00:21:14;;;;;;;;;;;;;;;29.77;34.67;97115.22;5019481;28;1159;-54
2021/07/04 00:23:39;;;;;;;;;;;;;;;30.01;34.29;97115.31;5021343;28;1866;-55
2021/07/04 00:26:04;;;;;;;;;;;;;;;29.92;34.29;97108.31;5020272;28;1193;-53
2021/07/04 00:28:29;;;;;;;;;;;;;;;30.04;34.40;97115.03;5017799;28;1577;-53
2021/07/04 00:30:55;;;;;;;;;;;;;;;29.87;34.30;97115.94;5020365;28;1176;-54
2021/07/04 00:33:20;;;;;;;;;;;;;;;29.64;34.79;97107.69;5018648;28;1644;-54
2021/07/04 00:35:45;;;;;;;;;;;;;;;30.06;33.90;97104.22;5017763;28;1587;-52
2021/07/04 00:38:10;;;;;;;;;;;;;;;30.14;33.94;97102.44;5012688;28;1894;-55
2021/07/04 00:40:36;;;;;;;;;;;;;;;29.89;34.24;97105.97;5014243;28;1585;-54
2021/07/04 00:43:02;;;;;;;;;;;;;;;29.61;34.72;97103.50;5019270;28;1161;-55
2021/07/04 00:45:27;;;;;;;;;;;;;;;29.71;34.64;97103.41;5019316;28;1371;-54
2021/07/04 00:47:53;;;;;;;;;;;;;;;29.55;35.04;97101.50;5017771;28;1762;-54
2021/07/04 00:50:19;;;;;;;;;;;;;;;29.88;34.06;97102.50;5018628;28;1098;-52
2021/07/04 00:52:44;;;;;;;;;;;;;;;29.95;34.48;97102.69;5016673;28;1613;-53
2021/07/04 00:55:12;;;;;;;;;;;;;;;30.09;34.07;97104.75;5020768;28;1363;-54
2021/07/04 00:57:37;;;;;;;;;;;;;;;29.79;34.79;97103.44;4997429;28;1969;-53
2021/07/04 01:00:06;;;;;;;;;;;;;;;29.90;34.25;97102.31;5015290;28;1592;-53
2021/07/04 01:02:31;;;;;;;;;;;;;;;29.92;34.30;97103.00;5016021;28;1525;-54
2021/07/04 01:04:57;;;;;;;;;;;;;;;29.67;34.65;97102.03;5016364;28;1616;-52
2021/07/04 01:07:22;;;;;;;;;;;;;;;29.97;34.14;97100.69;5018221;28;1580;-52
2021/07/04 01:09:47;;;;;;;;;;;;;;;30.06;33.86;97107.72;5019599;28;1173;-53
2021/07/04 01:12:12;;;;;;;;;;;;;;;30.13;33.85;97102.63;5017597;28;1370;-53
2021/07/04 01:14:37;;;;;;;;;;;;;;;29.80;34.46;97113.09;5020294;28;1332;-52
2021/07/04 01:17:03;;;;;;;;;;;;;;;29.79;34.46;97102.63;4998066;28;1594;-55
2021/07/04 01:19:28;;;;;;;;;;;;;;;29.77;34.53;97102.75;5015400;28;1898;-53
2021/07/04 01:21:54;;;;;;;;;;;;;;;29.88;34.25;97094.50;5017034;28;1564;-54
2021/07/04 01:24:21;;;;;;;;;;;;;;;29.83;34.29;97090.66;5020588;28;1268;-54
2021/07/04 01:26:47;;;;;;;;;;;;;;;29.57;34.86;97094.19;5018645;28;1456;-55
2021/07/04 01:29:12;;;;;;;;;;;;;;;29.75;34.80;97100.25;5017869;28;1675;-55
2021/07/04 01:31:37;;;;;;;;;;;;;;;29.82;34.38;97099.63;5017670;28;1544;-55
2021/07/04 01:34:02;;;;;;;;;;;;;;;30.11;34.10;97096.63;5021667;28;1651;-55
2021/07/04 01:36:28;;;;;;;;;;;;;;;29.59;34.94;97094.03;5021456;28;1367;-53
2021/07/04 01:38:53;;;;;;;;;;;;;;;30.05;34.18;97092.75;5022022;28;1902;-52
2021/07/04 01:41:18;;;;;;;;;;;;;;;29.72;34.60;97094.44;5021513;28;1625;-54
2021/07/04 01:43:43;;;;;;;;;;;;;;;29.84;34.12;97093.16;5022085;28;1354;-54
2021/07/04 01:46:08;;;;;;;;;;;;;;;29.92;34.33;97095.84;5022552;28;1181;-55
2021/07/04 01:48:34;;;;;;;;;;;;;;;29.81;34.41;97090.00;5021668;28;1533;-53
2021/07/04 01:50:59;;;;;;;;;;;;;;;30.20;33.70;97093.00;5022152;28;1391;-55
2021/07/04 01:53:24;;;;;;;;;;;;;;;29.98;34.26;97095.22;5022978;28;1450;-52
2021/07/04 01:55:49;;;;;;;;;;;;;;;29.93;34.18;97094.84;5022552;28;1541;-54
2021/07/04 01:58:14;;;;;;;;;;;;;;;29.72;34.44;97092.63;5021472;28;1967;-53
2021/07/04 02:00:40;;;;;;;;;;;;;;;30.01;34.20;97086.06;5021979;28;1355;-55
2021/07/04 02:03:06;;;;;;;;;;;;;;;29.89;34.10;97085.53;5021411;28;2138;-54
2021/07/04 02:05:31;;;;;;;;;;;;;;;29.56;34.83;97079.25;5020200;28;1586;-54
2021/07/04 02:07:57;;;;;;;;;;;;;;;29.87;34.42;97078.72;5020788;28;1493;-54
2021/07/04 02:10:23;;;;;;;;;;;;;;;29.66;34.70;97079.94;5020957;28;1153;-54
2021/07/04 02:12:48;;;;;;;;;;;;;;;30.05;33.81;97073.31;5022816;28;1383;-54
2021/07/04 02:15:14;;;;;;;;;;;;;;;29.74;34.46;97073.84;5022921;28;1288;-53
2021/07/04 02:17:40;;;;;;;;;;;;;;;30.40;33.43;97067.75;5020611;28;1910;-53
2021/07/04 02:20:12;;;;;;;;;;;;;;;30.07;33.99;97068.66;5020350;28;1992;-53
2021/07/04 02:22:38;;;;;;;;;;;;;;;30.22;33.77;97067.91;5003733;28;1541;-54
2021/07/04 02:25:03;;;;;;;;;;;;;;;29.81;34.41;97066.06;5022826;28;1316;-54
2021/07/04 02:27:28;;;;;;;;;;;;;;;29.95;34.38;97060.97;5021007;28;1686;-53
2021/07/04 02:29:53;;;;;;;;;;;;;;;29.99;34.17;97064.97;5020363;28;1322;-53
2021/07/04 02:32:19;;;;;;;;;;;;;;;29.63;34.57;97069.66;5020628;28;1098;-54
2021/07/04 02:34:44;;;;;;;;;;;;;;;29.61;34.77;97063.63;5018806;28;1525;-55
2021/07/04 02:37:09;;;;;;;;;;;;;;;29.89;34.35;97061.63;5020701;28;1355;-53
2021/07/04 02:39:35;;;;;;;;;;;;;;;29.80;34.52;97064.41;5016922;28;1946;-54
2021/07/04 02:42:00;;;;;;;;;;;;;;;29.71;34.75;97067.03;5019755;28;1525;-55
2021/07/04 02:44:25;;;;;;;;;;;;;;;29.73;34.37;97073.00;5020355;28;1722;-55
2021/07/04 02:46:50;;;;;;;;;;;;;;;29.73;34.35;97067.69;5021062;28;1431;-55
2021/07/04 02:49:15;;;;;;;;;;;;;;;29.46;35.18;97060.69;5019496;28;1588;-54
2021/07/04 02:51:41;;;;;;;;;;;;;;;29.72;34.38;97059.88;5022877;28;1434;-54
2021/07/04 02:54:06;;;;;;;;;;;;;;;29.85;34.52;97062.91;5021427;28;1422;-53
2021/07/04 02:56:31;;;;;;;;;;;;;;;29.97;34.26;97060.81;5021227;28;1556;-54
2021/07/04 02:58:56;;;;;;;;;;;;;;;29.58;34.74;97058.66;5021376;28;1961;-53
2021/07/04 03:01:21;;;;;;;;;;;;;;;29.81;34.54;97055.44;5020826;28;1236;-53
2021/07/04 03:03:47;;;;;;;;;;;;;;;29.50;34.82;97058.59;5022272;28;1735;-54
2021/07/04 03:06:12;;;;;;;;;;;;;;;29.58;35.04;97065.78;5019395;28;1580;-54
2021/07/04 03:08:37;;;;;;;;;;;;;;;29.71;34.76;97066.19;5020988;28;1473;-55
2021/07/04 03:11:02;;;;;;;;;;;;;;;29.95;34.32;97065.47;5019942;28;1267;-53
2021/07/04 03:13:27;;;;;;;;;;;;;;;29.86;34.16;97063.75;5017083;28;1600;-53
2021/07/04 03:15:53;;;;;;;;;;;;;;;30.05;33.85;97070.66;5020181;28;1199;-53
2021/07/04 03:18:18;;;;;;;;;;;;;;;29.68;34.70;97064.66;5020520;28;2012;-55
2021/07/04 03:20:43;;;;;;;;;;;;;;;29.66;34.68;97074.63;5017974;28;1370;-54
2021/07/04 03:23:08;;;;;;;;;;;;;;;29.93;34.14;97067.44;5019769;28;1089;-55
2021/07/04 03:25:34;;;;;;;;;;;;;;;29.66;34.75;97063.16;5019978;28;1478;-55
2021/07/04 03:27:59;;;;;;;;;;;;;;;29.48;34.95;97064.06;5020054;28;1707;-55
2021/07/04 03:30:24;;;;;;;;;;;;;;;29.72;34.74;97062.53;5019576;28;1267;-53
2021/07/04 03:32:49;;;;;;;;;;;;;;;29.74;34.54;97077.34;5018935;28;1596;-54
2021/07/04 03:35:15;;;;;;;;;;;;;;;29.57;34.95;97074.75;5020257;28;1367;-53
2021/07/04 03:37:40;;;;;;;;;;;;;;;29.62;34.65;97073.28;5021316;28;1902;-53
2021/07/04 03:40:05;;;;;;;;;;;;;;;29.71;34.57;97076.81;5018944;28;1343;-53
2021/07/04 03:42:30;;;;;;;;;;;;;;;29.58;34.68;97068.44;5018350;28;1620;-55
2021/07/04 03:44:56;;;;;;;;;;;;;;;29.90;34.04;97076.56;5019844;28;1296;-53
2021/07/04 03:47:25;;;;;;;;;;;;;;;29.88;34.13;97077.72;5020882;28;1248;-53
2021/07/04 03:49:50;;;;;;;;;;;;;;;29.97;34.01;97082.09;5019325;28;1588;-55
2021/07/04 03:52:15;;;;;;;;;;;;;;;29.68;34.64;97077.97;5017494;28;1303;-55
2021/07/04 03:54:40;;;;;;;;;;;;;;;29.65;34.70;97080.94;5018714;28;1303;-55
2021/07/04 03:57:21;;;;;;;;;;;;;;;29.58;34.85;97081.72;5018847;28;1524;-55
2021/07/04 03:59:47;;;;;;;;;;;;;;;29.96;34.17;97078.59;5021771;28;978;-55
2021/07/04 04:02:12;;;;;;;;;;;;;;;29.67;34.81;97086.09;5015523;28;1576;-55
2021/07/04 04:04:37;;;;;;;;;;;;;;;29.91;34.06;97094.19;5017867;28;1747;-53
2021/07/04 04:07:02;;;;;;;;;;;;;;;29.68;34.73;97085.94;5020087;28;1532;-53
2021/07/04 04:09:28;;;;;;;;;;;;;;;29.65;34.71;97091.56;5020637;28;1204;-55
2021/07/04 04:11:53;;;;;;;;;;;;;;;29.69;34.34;97094.72;5019736;28;1255;-55
2021/07/04 04:14:18;;;;;;;;;;;;;;;29.93;34.34;97096.69;5018543;28;1561;-53
2021/07/04 04:16:43;;;;;;;;;;;;;;;29.50;35.01;97089.66;5020332;28;1231;-55
2021/07/04 04:19:08;;;;;;;;;;;;;;;29.87;34.20;97100.00;5018423;28;1964;-55
2021/07/04 04:21:34;;;;;;;;;;;;;;;29.78;34.49;97098.25;5021491;28;1297;-52
2021/07/04 04:23:59;;;;;;;;;;;;;;;29.60;34.61;97096.53;5018798;28;1331;-53
2021/07/04 04:26:24;;;;;;;;;;;;;;;29.62;34.70;97097.19;5019807;28;1660;-55
2021/07/04 04:28:49;;;;;;;;;;;;;;;29.62;34.49;97104.31;5020215;28;1112;-56
2021/07/04 04:31:15;;;;;;;;;;;;;;;29.83;34.51;97106.59;5019500;28;1148;-53
2021/07/04 04:33:40;;;;;;;;;;;;;;;29.91;34.37;97101.31;5019622;28;1541;-55
2021/07/04 04:36:05;;;;;;;;;;;;;;;29.84;34.25;97098.47;5020079;28;1181;-53
2021/07/04 04:38:30;;;;;;;;;;;;;;;29.62;34.76;97094.53;5019675;28;1914;-55
2021/07/04 04:40:55;;;;;;;;;;;;;;;29.62;34.61;97091.88;5019402;28;1494;-55
2021/07/04 04:43:21;;;;;;;;;;;;;;;29.41;35.00;97091.41;5017059;28;1628;-54
2021/07/04 04:45:46;;;;;;;;;;;;;;;29.66;34.74;97087.91;5019258;28;1240;-55
2021/07/04 04:48:11;;;;;;;;;;;;;;;29.60;34.95;97085.88;5017663;28;1486;-55
2021/07/04 04:50:36;;;;;;;;;;;;;;;29.71;34.72;97087.47;5020054;28;1208;-55
2021/07/04 04:53:01;;;;;;;;;;;;;;;29.79;34.65;97086.66;5019774;28;1081;-54
2021/07/04 04:55:27;;;;;;;;;;;;;;;29.79;34.28;97086.66;5018703;28;1399;-55
2021/07/04 04:57:52;;;;;;;;;;;;;;;29.75;34.29;97088.78;5017685;28;1910;-55
2021/07/04 05:00:17;;;;;;;;;;;;;;;29.74;34.61;97087.97;5016074;28;1501;-54
2021/07/04 05:02:43;;;;;;;;;;;;;;;29.45;35.08;97090.09;5020301;28;1588;-53
2021/07/04 05:05:08;;;;;;;;;;;;;;;29.70;34.70;97088.41;5015468;28;1359;-53
2021/07/04 05:07:33;;;;;;;;;;;;;;;29.75;34.40;97096.78;5022244;28;1549;-55
2021/07/04 05:09:58;;;;;;;;;;;;;;;29.95;34.07;97089.41;5022498;28;1168;-55
2021/07/04 05:12:24;;;;;;;;;;;;;;;29.99;34.31;97096.03;5023891;28;1176;-55
2021/07/04 05:14:49;;;;;;;;;;;;;;;29.56;34.85;97089.88;5022252;28;1454;-55
2021/07/04 05:17:16;;;;;;;;;;;;;;;30.06;33.96;97090.91;5022285;28;1561;-55
2021/07/04 05:19:42;;;;;;;;;;;;;;;29.78;34.38;97087.63;5021790;28;1902;-53
2021/07/04 05:22:07;;;;;;;;;;;;;;;29.43;34.88;97084.09;5025120;28;1185;-53
2021/07/04 05:24:32;;;;;;;;;;;;;;;29.65;34.63;97094.22;5022136;28;1268;-55
2021/07/04 05:26:57;;;;;;;;;;;;;;;29.87;34.23;97089.38;5023667;28;1338;-55
2021/07/04 05:29:22;;;;;;;;;;;;;;;29.57;34.66;97088.88;5021203;28;1604;-53
2021/07/04 05:31:48;;;;;;;;;;;;;;;29.59;34.66;97086.88;5021310;28;1732;-54
2021/07/04 05:34:13;;;;;;;;;;;;;;;29.58;34.78;97077.25;5021025;28;1517;-55
2021/07/04 05:36:38;;;;;;;;;;;;;;;29.82;34.54;97083.69;5022281;28;1674;-53
2021/07/04 05:39:03;;;;;;;;;;;;;;;29.64;34.71;97076.63;5024113;28;1903;-55
2021/07/04 05:41:28;;;;;;;;;;;;;;;29.84;34.13;97082.50;5021997;28;1561;-54
2021/07/04 05:43:54;;;;;;;;;;;;;;;30.02;33.96;97079.78;5023125;28;1289;-53
2021/07/04 05:46:19;;;;;;;;;;;;;;;30.02;33.87;97082.44;5023849;28;1401;-54
2021/07/04 05:48:44;;;;;;;;;;;;;;;29.84;34.46;97084.34;5022496;28;1576;-55
2021/07/04 05:51:09;;;;;;;;;;;;;;;29.72;34.64;97073.19;5021729;28;1413;-53
2021/07/04 05:53:35;;;;;;;;;;;;;;;30.12;33.65;97074.34;5024164;28;1289;-55
2021/07/04 05:56:00;;;;;;;;;;;;;;;29.85;34.38;97075.38;5021744;28;1122;-55
2021/07/04 05:58:25;;;;;;;;;;;;;;;29.71;34.45;97075.00;4957808;28;1906;-55
2021/07/04 06:00:50;;;;;;;;;;;;;;;29.81;34.33;97074.03;5021049;28;1821;-55
2021/07/04 06:03:15;;;;;;;;;;;;;;;29.67;34.61;97070.97;5020878;28;1584;-55
2021/07/04 06:05:41;;;;;;;;;;;;;;;30.05;33.82;97066.16;5021542;28;1592;-55
2021/07/04 06:08:06;;;;;;;;;;;;;;;29.95;34.00;97071.63;5022617;28;1168;-55
2021/07/04 06:10:31;;;;;;;;;;;;;;;30.03;34.28;97076.97;5021168;28;1609;-55
2021/07/04 06:12:56;;;;;;;;;;;;;;;29.85;34.25;97070.06;5022307;28;1330;-54
2021/07/04 06:15:21;;;;;;;;;;;;;;;29.81;34.37;97068.72;5021313;28;1505;-55
2021/07/04 06:17:47;;;;;;;;;;;;;;;29.75;34.60;97078.16;5019723;28;1914;-55
2021/07/04 06:20:13;;;;;;;;;;;;;;;29.59;34.87;97076.25;5019104;28;1371;-54
2021/07/04 06:22:38;;;;;;;;;;;;;;;29.48;34.89;97072.03;5021870;28;1071;-54
2021/07/04 06:25:03;;;;;;;;;;;;;;;29.37;35.02;97074.94;5023583;28;1275;-55
2021/07/04 06:27:29;;;;;;;;;;;;;;;29.88;34.56;97072.41;5021028;28;1628;-54
2021/07/04 06:29:54;;;;;;;;;;;;;;;29.64;34.82;97067.81;5021358;28;1755;-52
2021/07/04 06:32:19;;;;;;;;;;;;;;;29.43;35.09;97065.50;5022673;28;1232;-55
2021/07/04 06:34:44;;;;;;;;;;;;;;;29.87;34.49;97058.28;5021127;28;1612;-55
2021/07/04 06:37:09;;;;;;;;;;;;;;;29.81;34.29;97058.91;5017512;28;1925;-55
2021/07/04 06:39:35;;;;;;;;;;;;;;;29.74;34.27;97069.34;5022898;28;1968;-55
2021/07/04 06:42:00;;;;;;;;;;;;;;;29.81;34.34;97066.91;5019062;28;1648;-54
2021/07/04 06:44:25;;;;;;;;;;;;;;;29.51;35.08;97065.59;5020784;28;1312;-54
2021/07/04 06:46:50;;;;;;;;;;;;;;;29.88;34.01;97065.28;5018895;28;1290;-55
2021/07/04 06:49:15;;;;;;;;;;;;;;;30.06;33.90;97065.16;5021231;28;1580;-53
2021/07/04 06:51:40;;;;;;;;;;;;;;;29.67;34.71;97076.28;5020034;28;1359;-55
2021/07/04 06:54:06;;;;;;;;;;;;;;;29.79;34.33;97065.41;5016898;28;1700;-54
2021/07/04 06:56:31;;;;;;;;;;;;;;;29.68;34.46;97062.00;5018423;28;1470;-54
2021/07/04 06:58:56;;;;;;;;;;;;;;;29.66;34.43;97064.00;5020455;28;1911;-55
2021/07/04 07:01:21;;;;;;;;;;;;;;;29.28;35.16;97051.13;5017736;28;1617;-53
2021/07/04 07:03:46;;;;;;;;;;;;;;;29.87;33.98;97045.00;5019989;28;1569;-53
2021/07/04 07:06:12;;;;;;;;;;;;;;;29.85;34.25;97046.13;5019891;28;1541;-55
2021/07/04 07:08:37;;;;;;;;;;;;;;;29.92;34.08;97045.34;5020978;28;1350;-53
2021/07/04 07:11:02;;;;;;;;;;;;;;;29.88;34.17;97038.69;5017684;28;1469;-55
2021/07/04 07:13:27;;;;;;;;;;;;;;;29.66;34.46;97042.75;5021526;28;1237;-55
2021/07/04 07:15:53;;;;;;;;;;;;;;;29.46;34.72;97044.75;5017675;28;1620;-54
2021/07/04 07:18:18;;;;;;;;;;;;;;;29.54;35.05;97051.13;5020819;28;1906;-54
2021/07/04 07:20:43;;;;;;;;;;;;;;;29.61;34.61;97050.34;5020478;28;1389;-55
2021/07/04 07:23:08;;;;;;;;;;;;;;;29.93;34.26;97051.47;5021870;28;1201;-54
2021/07/04 07:25:33;;;;;;;;;;;;;;;29.61;34.73;97053.00;5018707;28;1485;-54
2021/07/04 07:27:59;;;;;;;;;;;;;;;30.18;33.58;97041.81;5020402;28;1549;-55
2021/07/04 07:30:24;;;;;;;;;;;;;;;29.92;34.22;97039.19;5020944;28;1179;-53
2021/07/04 07:32:49;;;;;;;;;;;;;;;29.63;34.65;97040.41;5019418;28;1553;-54
2021/07/04 07:35:14;;;;;;;;;;;;;;;29.63;34.71;97028.97;5021658;28;1437;-54
2021/07/04 07:37:40;;;;;;;;;;;;;;;29.52;35.05;97024.72;5022580;28;1961;-53
2021/07/04 07:40:05;;;;;;;;;;;;;;;30.14;33.62;97025.31;5018919;28;1349;-55
2021/07/04 07:42:30;;;;;;;;;;;;;;;29.82;34.18;97025.19;5017353;28;1597;-51
2021/07/04 07:44:56;;;;;;;;;;;;;;;29.85;34.17;97016.88;5020408;28;1956;-55
2021/07/04 07:47:21;;;;;;;;;;;;;;;29.71;34.37;97018.34;5017584;28;1046;-55
2021/07/04 07:49:46;;;;;;;;;;;;;;;29.46;34.81;97020.00;5016153;28;1687;-55
2021/07/04 07:52:11;;;;;;;;;;;;;;;29.77;34.49;97014.19;5019545;28;1358;-54
2021/07/04 07:54:36;;;;;;;;;;;;;;;29.60;34.84;97015.97;5018349;28;1386;-53
2021/07/04 07:57:02;;;;;;;;;;;;;;;29.52;34.82;97019.41;5020137;28;1565;-55
2021/07/04 07:59:30;;;;;;;;;;;;;;;29.45;35.10;97021.00;5019197;28;1965;-53
2021/07/04 08:01:55;;;;;;;;;;;;;;;29.56;34.99;97014.63;5020017;28;1461;-55
2021/07/04 08:04:20;;;;;;;;;;;;;;;29.64;34.62;97018.16;5018470;28;1625;-53
2021/07/04 08:06:45;;;;;;;;;;;;;;;29.60;34.84;97014.13;5015532;28;1676;-53
2021/07/04 08:09:11;;;;;;;;;;;;;;;29.55;34.88;97013.81;5021052;28;1029;-54
2021/07/04 08:11:36;;;;;;;;;;;;;;;29.54;34.90;97013.94;5017897;28;2056;-55
2021/07/04 08:14:01;;;;;;;;;;;;;;;29.48;34.84;97018.88;5018028;28;1648;-53
2021/07/04 08:16:26;;;;;;;;;;;;;;;29.64;34.59;97012.84;5019078;28;1505;-54
2021/07/04 08:18:52;;;;;;;;;;;;;;;29.54;34.59;97011.28;5019464;28;1906;-55
2021/07/04 08:21:17;;;;;;;;;;;;;;;30.01;34.23;97003.66;5017418;28;1311;-53
2021/07/04 08:23:42;;;;;;;;;;;;;;;29.36;35.14;97003.38;5019253;28;1604;-55
2021/07/04 08:26:07;;;;;;;;;;;;;;;29.40;34.92;96994.09;5018801;28;1493;-54
2021/07/04 08:28:33;;;;;;;;;;;;;;;29.81;34.42;96996.97;5021756;28;1290;-55
2021/07/04 08:30:58;;;;;;;;;;;;;;;29.86;34.19;96999.94;5019258;28;1294;-53
2021/07/04 08:33:23;;;;;;;;;;;;;;;29.53;34.84;96991.84;5018065;28;1585;-55
2021/07/04 08:35:48;;;;;;;;;;;;;;;29.98;33.82;96977.38;5019353;28;1358;-54
2021/07/04 08:38:13;;;;;;;;;;;;;;;29.77;34.39;96979.66;5020341;28;1973;-54
2021/07/04 08:40:39;;;;;;;;;;;;;;;29.67;34.42;96970.00;5017984;28;1137;-54
2021/07/04 08:43:04;;;;;;;;;;;;;;;29.72;34.41;96973.00;5018888;28;1588;-54
2021/07/04 08:45:33;;;;;;;;;;;;;;;29.72;34.41;96970.34;5019778;28;1360;-55
2021/07/04 08:47:59;;;;;;;;;;;;;;;29.46;35.06;96969.53;5015643;28;1620;-55
2021/07/04 08:50:24;;;;;;;;;;;;;;;29.83;34.18;96968.38;5020244;28;1129;-53
2021/07/04 08:52:49;;;;;;;;;;;;;;;29.53;34.82;96961.78;5015353;28;1466;-53
2021/07/04 08:55:16;;;;;;;;;;;;;;;29.42;34.99;96966.38;5019267;28;1280;-55
2021/07/04 08:57:42;;;;;;;;;;;;;;;29.50;35.07;96964.78;5017886;28;1963;-55
2021/07/04 09:00:07;;;;;;;;;;;;;;;29.83;34.16;96955.09;5020034;28;1073;-54
2021/07/04 09:02:33;;;;;;;;;;;;;;;29.60;34.71;96950.38;5018037;28;1326;-53
2021/07/04 09:05:03;;;;;;;;;;;;;;;29.32;34.92;96955.06;5017943;28;1604;-55
2021/07/04 09:07:29;;;;;;;;;;;;;;;29.69;34.36;96938.75;5017249;28;1605;-55
2021/07/04 09:10:04;;;;;;;;;;;;;;;29.45;35.06;96946.63;5021171;28;1109;-54
2021/07/04 09:12:36;;;;;;;;;;;;;;;29.54;34.87;96940.38;4998617;28;1614;-55
2021/07/04 09:15:06;;;;;;;;;;;;;;;29.53;34.81;96941.38;5018370;28;1319;-53
2021/07/04 09:17:33;;;;;;;;;;;;;;;29.45;35.03;96930.69;5020116;28;1973;-55
2021/07/04 09:19:59;;;;;;;;;;;;;;;29.83;34.49;96944.47;5016766;28;1755;-53
2021/07/04 09:22:25;;;;;;;;;;;;;;;29.73;34.41;96933.97;5019646;28;1347;-55
2021/07/04 09:24:50;;;;;;;;;;;;;;;29.53;34.70;96933.41;5019469;28;1359;-55
2021/07/04 09:27:16;;;;;;;;;;;;;;;29.69;34.75;96930.78;5019844;28;1138;-54
2021/07/04 09:29:48;;;;;;;;;;;;;;;29.73;34.42;96926.84;5018884;28;1981;-53
2021/07/04 09:32:25;;;;;;;;;;;;;;;29.53;34.94;96932.56;5018749;28;1047;-55
2021/07/04 09:34:57;;;;;;;;;;;;;;;29.66;34.47;96925.81;5018327;28;1632;-55
2021/07/04 09:37:27;;;;;;;;;;;;;;;29.52;34.82;96928.25;5016528;28;1541;-55
2021/07/04 09:39:54;;;;;;;;;;;;;;;29.75;34.29;96935.47;5019505;28;1898;-55
2021/07/04 09:42:19;;;;;;;;;;;;;;;29.47;35.03;96929.56;4995497;28;1700;-55
2021/07/04 09:44:45;;;;;;;;;;;;;;;29.36;35.08;96924.50;5020593;28;1371;-55
2021/07/04 09:47:13;;;;;;;;;;;;;;;29.47;34.70;96934.03;5015877;28;1775;-55
2021/07/04 09:49:39;;;;;;;;;;;;;;;29.46;34.84;96924.38;4998943;28;1570;-54
2021/07/04 09:52:11;;;;;;;;;;;;;;;29.82;34.38;96921.53;5020588;28;1208;-55
2021/07/04 09:54:36;;;;;;;;;;;;;;;29.70;34.56;96923.66;5020782;28;1348;-54
2021/07/04 09:57:05;;;;;;;;;;;;;;;29.67;34.57;96926.66;5002034;28;1593;-54
2021/07/04 09:59:32;;;;;;;;;;;;;;;29.58;34.86;96919.66;5005807;28;1914;-53
2021/07/04 10:01:57;;;;;;;;;;;;;;;29.41;35.17;96921.38;5018657;28;1384;-53
2021/07/04 10:04:34;;;;;;;;;;;;;;;29.30;35.13;96921.66;5003268;28;1585;-53
2021/07/04 10:06:59;;;;;;;;;;;;;;;29.62;34.79;96920.97;5016667;28;1738;-55
2021/07/04 10:09:25;;;;;;;;;;;;;;;29.87;34.14;96913.91;5022601;28;1207;-54
2021/07/04 10:11:50;;;;;;;;;;;;;;;29.56;34.58;96911.00;5022614;28;1433;-53
2021/07/04 10:14:16;;;;;;;;;;;;;;;29.81;34.09;96911.91;5022620;28;1640;-54
2021/07/04 10:16:41;;;;;;;;;;;;;;;29.45;35.04;96901.47;5021762;28;1141;-55
2021/07/04 10:19:06;;;;;;;;;;;;;;;29.45;34.72;96910.25;5021794;28;1974;-55
2021/07/04 10:21:32;;;;;;;;;;;;;;;29.60;34.45;96899.06;5005519;28;1557;-55
2021/07/04 10:23:58;;;;;;;;;;;;;;;29.42;34.88;96905.28;5005128;28;1367;-55
2021/07/04 10:26:23;;;;;;;;;;;;;;;29.40;34.98;96909.94;5020960;28;2094;-55
2021/07/04 10:28:48;;;;;;;;;;;;;;;29.50;34.72;96907.16;5021531;28;1486;-55
2021/07/04 10:31:15;;;;;;;;;;;;;;;29.60;34.68;96905.19;5022400;28;1105;-53
2021/07/04 10:33:40;;;;;;;;;;;;;;;29.74;34.48;96901.09;5018104;28;1547;-54
2021/07/04 10:36:06;;;;;;;;;;;;;;;29.57;34.62;96915.34;5020991;28;1157;-55
2021/07/04 10:38:37;;;;;;;;;;;;;;;29.72;34.68;96916.38;5016078;28;1914;-53
2021/07/04 10:41:09;;;;;;;;;;;;;;;29.46;34.83;96916.41;5020765;28;971;-54
2021/07/04 10:43:46;;;;;;;;;;;;;;;29.64;34.75;96917.19;5018679;28;1300;-54
2021/07/04 10:46:12;;;;;;;;;;;;;;;29.46;34.92;96922.53;5017097;28;1623;-55
2021/07/04 10:48:46;;;;;;;;;;;;;;;29.54;34.61;96920.94;5002011;28;1676;-55
2021/07/04 10:51:15;;;;;;;;;;;;;;;29.55;34.67;96918.16;5002104;28;1303;-55
2021/07/04 10:53:50;;;;;;;;;;;;;;;29.55;34.62;96914.66;5020471;28;1493;-55
2021/07/04 10:56:34;;;;;;;;;;;;;;;29.98;33.77;96933.03;5019530;28;1609;-55
2021/07/04 10:59:06;;;;;;;;;;;;;;;29.62;34.59;96910.34;5019199;28;1967;-55
2021/07/04 11:01:46;;;;;;;;;;;;;;;29.43;35.10;96914.09;5021313;28;1149;-54
2021/07/04 11:04:27;;;;;;;;;;;;;;;29.48;34.92;96901.16;5017826;28;1541;-54
2021/07/04 11:06:53;;;;;;;;;;;;;;;29.56;34.73;96903.88;5017575;28;1580;-55
2021/07/04 11:09:18;;;;;;;;;;;;;;;29.48;34.70;96896.69;5021202;28;1089;-54
2021/07/04 11:11:43;;;;;;;;;;;;;;;29.42;35.07;96885.84;5017690;28;1581;-55
2021/07/04 11:14:09;;;;;;;;;;;;;;;29.43;35.04;96893.66;5021034;28;1464;-55
2021/07/04 11:16:34;;;;;;;;;;;;;;;29.38;34.93;96885.34;5020651;28;1157;-53
2021/07/04 11:19:06;;;;;;;;;;;;;;;29.40;35.05;96883.38;5019315;28;1906;-54
2021/07/04 11:21:56;;;;;;;;;;;;;;;29.39;34.93;96881.72;5022152;28;1165;-55
2021/07/04 11:24:22;;;;;;;;;;;;;;;29.38;34.94;96876.53;5019985;28;1486;-53
2021/07/04 11:27:06;;;;;;;;;;;;;;;29.68;34.46;96869.84;5019748;28;1702;-54
2021/07/04 11:29:31;;;;;;;;;;;;;;;29.61;34.56;96869.66;5020371;28;1146;-54
2021/07/04 11:32:10;;;;;;;;;;;;;;;29.66;34.68;96872.66;5020698;28;1157;-54
2021/07/04 11:34:44;;;;;;;;;;;;;;;29.49;34.98;96857.66;5000036;28;1617;-54
2021/07/04 11:37:10;;;;;;;;;;;;;;;29.44;34.92;96858.13;5001877;28;1521;-53
2021/07/04 11:39:35;;;;;;;;;;;;;;;29.70;34.36;96851.91;5019443;28;1994;-54
2021/07/04 11:42:00;;;;;;;;;;;;;;;29.56;34.60;96842.75;5019497;28;1267;-53
2021/07/04 11:44:26;;;;;;;;;;;;;;;29.58;34.68;96850.56;5019932;28;1580;-53
2021/07/04 11:46:52;;;;;;;;;;;;;;;29.52;34.78;96846.72;5017106;28;1291;-54
2021/07/04 11:49:18;;;;;;;;;;;;;;;29.48;34.97;96853.34;5020020;28;1616;-55
2021/07/04 11:51:57;;;;;;;;;;;;;;;29.48;34.64;96848.84;5001811;28;1185;-55
2021/07/04 11:54:29;;;;;;;;;;;;;;;29.48;34.94;96845.38;5022325;28;1542;-54
2021/07/04 11:56:55;;;;;;;;;;;;;;;29.40;35.14;96843.53;5016344;28;1552;-53
2021/07/04 11:59:27;;;;;;;;;;;;;;;29.56;34.57;96833.97;5017820;28;1910;-54
2021/07/04 12:01:56;;;;;;;;;;;;;;;29.46;34.67;96834.88;5019223;28;1230;-54
2021/07/04 12:04:35;;;;;;;;;;;;;;;29.56;34.80;96831.31;5018854;28;1596;-54
2021/07/04 12:07:00;;;;;;;;;;;;;;;29.65;34.50;96827.66;5016805;28;1607;-55
2021/07/04 12:09:36;;;;;;;;;;;;;;;29.43;34.87;96829.06;5019337;28;1169;-53
2021/07/04 12:12:01;;;;;;;;;;;;;;;29.49;34.92;96825.78;5020064;28;1430;-53
2021/07/04 12:14:27;;;;;;;;;;;;;;;29.63;34.63;96819.84;5019767;28;1551;-54
2021/07/04 12:16:53;;;;;;;;;;;;;;;29.85;34.04;96818.34;5018336;28;1184;-55
2021/07/04 12:19:34;;;;;;;;;;;;;;;29.68;34.21;96817.50;5020250;28;1969;-54
2021/07/04 12:22:00;;;;;;;;;;;;;;;29.43;35.01;96823.75;5018680;28;1239;-54
2021/07/04 12:24:36;;;;;;;;;;;;;;;29.82;34.40;96812.56;5042842;23;1926;-57
2021/07/04 12:27:01;;;;;;;;;;;;;;;29.66;34.70;96813.38;4995077;28;1696;-58
2021/07/04 12:29:26;;;;;;;;;;;;;;;29.67;34.68;96807.88;5000060;28;1204;-57
2021/07/04 12:32:04;;;;;;;;;;;;;;;29.58;34.40;96806.22;4999719;28;1164;-59
2021/07/04 12:34:29;;;;;;;;;;;;;;;29.47;34.70;96806.53;4996791;28;1566;-57
2021/07/04 12:36:55;;;;;;;;;;;;;;;29.39;34.88;96802.03;5000996;28;1110;-57
2021/07/04 12:39:27;;;;;;;;;;;;;;;29.64;34.45;96799.44;4999762;28;1918;-58
2021/07/04 12:41:52;;;;;;;;;;;;;;;29.91;33.83;96791.13;4995936;28;1548;-59
2021/07/04 12:44:17;;;;;;;;;;;;;;;29.57;34.73;96796.59;4998954;28;1356;-58
2021/07/04 12:46:43;;;;;;;;;;;;;;;29.79;34.09;96795.13;4999657;28;1304;-57
2021/07/04 12:49:11;;;;;;;;;;;;;;;30.26;33.35;96778.50;4998748;28;1514;-59
2021/07/04 12:51:37;;;;;;;;;;;;;;;29.68;34.61;96782.97;4999636;28;1201;-57
2021/07/04 12:54:21;;;;;;;;;;;;;;;29.64;34.46;96779.00;4999445;28;1591;-57